Huvudsida
METAR-TAF:

METAR-TAF

Flygplatser :

Uttis, Finland

Utti Airport

latitud: 60-54N, longitud: 026-56E, höjd: 100 m

Aktuellt väderrapport

Denna rapport gjordes för 6 minuter sedan, klockan 18:20 UTC
Vind 4 kt från nordväst, varierande mellan väst och nord
Temperatur 2°C
Fuktighet 64%
Tryck 1015 hPa
Sikt 10 km eller mer
Mulet på en höjd av 4100 ft

METAR: EFUT 221820Z AUTO 32004KT 280V360 9999 OVC041 02/M04 Q1015

Tid: 21:26 (18:26 UTC)


TAF: saknas

Aktuella väderrapporter och prognoser från 4000 flygplatser (METAR- och TAF-rapporter).

De tillgängliga stationerna syns som gula och röda prickar på kartan.

För musen över prickarna för att se namnen på stationerna.

Klicka sedan för att få väderrapporter och prognoser.

För att ändra kartan: Klicka på de gröna knapparna med ett svart kors på för att zooma in; den gröna knappen med ett streck på för att zooma ut; eller på de gröna pilarna för angränsande kartor.


METAR-TAF: